createdAt,value
2023-10-15T00:01:43.745Z,65.40
2023-10-15T00:06:47.138Z,65.30
2023-10-15T00:11:52.509Z,65.20
2023-10-15T00:16:56.045Z,65.20
2023-10-15T00:21:59.538Z,65.10
2023-10-15T00:27:04.987Z,65.00
2023-10-15T00:32:08.453Z,65.00
2023-10-15T00:37:12.204Z,64.70
2023-10-15T00:42:18.015Z,64.60
2023-10-15T00:47:23.251Z,64.60
2023-10-15T00:52:30.662Z,65.30
2023-10-15T00:57:44.329Z,64.50
2023-10-15T01:02:49.004Z,64.50
2023-10-15T01:07:53.214Z,64.50
2023-10-15T01:13:18.477Z,64.60
2023-10-15T01:18:23.799Z,64.60
2023-10-15T01:23:33.214Z,64.30
2023-10-15T01:28:39.048Z,64.40
2023-10-15T01:33:48.627Z,64.40
2023-10-15T01:38:56.114Z,64.40
2023-10-15T01:44:02.569Z,64.30
2023-10-15T01:49:09.000Z,64.40
2023-10-15T01:54:13.458Z,64.20
2023-10-15T01:59:20.409Z,65.10
2023-10-15T02:04:25.492Z,64.00
2023-10-15T02:09:31.423Z,63.90
2023-10-15T02:14:36.403Z,63.80
2023-10-15T02:19:42.386Z,63.80
2023-10-15T02:24:49.197Z,63.70
2023-10-15T02:29:55.570Z,63.50
2023-10-15T02:35:00.229Z,63.30
2023-10-15T02:40:18.107Z,63.20
2023-10-15T02:45:25.423Z,63.20
2023-10-15T02:50:33.136Z,63.10
2023-10-15T02:55:37.963Z,63.10
2023-10-15T03:00:43.892Z,63.10
2023-10-15T03:05:49.027Z,63.10
2023-10-15T03:10:57.720Z,63.10
2023-10-15T03:16:08.774Z,62.90
2023-10-15T03:21:21.218Z,62.90
2023-10-15T03:26:25.666Z,62.80
2023-10-15T03:31:32.547Z,62.70
2023-10-15T03:36:45.749Z,62.30
2023-10-15T03:41:53.804Z,62.20
2023-10-15T03:47:05.674Z,62.00
2023-10-15T03:52:10.334Z,61.60
2023-10-15T03:57:13.990Z,61.40
2023-10-15T04:02:24.590Z,61.30
2023-10-15T04:07:28.182Z,61.00
2023-10-15T04:12:31.819Z,60.90
2023-10-15T04:17:36.650Z,60.90
2023-10-15T04:22:45.661Z,60.80
2023-10-15T04:27:49.077Z,60.70
2023-10-15T04:32:57.552Z,60.60
2023-10-15T04:38:05.253Z,60.30
2023-10-15T04:43:08.968Z,60.40
2023-10-15T04:48:17.177Z,60.30
2023-10-15T04:53:26.183Z,60.10
2023-10-15T04:58:29.813Z,60.20
2023-10-15T05:03:35.782Z,60.10
2023-10-15T05:08:41.724Z,59.90
2023-10-15T05:13:45.435Z,60.10
2023-10-15T05:18:50.328Z,60.10
2023-10-15T05:23:54.040Z,60.00
2023-10-15T05:28:57.407Z,60.00
2023-10-15T05:34:02.161Z,60.00
2023-10-15T05:39:06.150Z,59.90
2023-10-15T05:44:09.687Z,60.00
2023-10-15T05:49:14.698Z,60.90
2023-10-15T05:54:18.274Z,60.00
2023-10-15T05:59:21.736Z,60.10
2023-10-15T06:04:26.775Z,60.00
2023-10-15T06:09:30.335Z,60.00
2023-10-15T06:14:33.973Z,60.10
2023-10-15T06:19:38.882Z,60.00
2023-10-15T06:24:42.395Z,60.00
2023-10-15T06:29:45.869Z,60.10
2023-10-15T06:34:51.264Z,60.00
2023-10-15T06:40:02.000Z,59.80
2023-10-15T06:45:12.259Z,59.90
2023-10-15T06:50:16.992Z,60.00
2023-10-15T06:55:22.560Z,59.80
2023-10-15T07:00:26.928Z,59.80
2023-10-15T07:05:32.021Z,59.80
2023-10-15T07:10:38.339Z,59.50
2023-10-15T07:15:42.044Z,59.60
2023-10-15T07:20:46.822Z,59.50
2023-10-15T07:25:51.098Z,59.40
2023-10-15T07:30:54.613Z,59.50
2023-10-15T07:36:02.984Z,59.40
2023-10-15T07:41:07.506Z,59.30
2023-10-15T07:46:10.979Z,59.30
2023-10-15T07:51:16.345Z,59.30
2023-10-15T07:56:19.862Z,59.20
2023-10-15T08:01:23.411Z,59.10
2023-10-15T08:06:28.572Z,59.10
2023-10-15T08:11:32.939Z,59.00
2023-10-15T08:16:36.582Z,59.90
2023-10-15T08:21:41.849Z,59.20
2023-10-15T08:26:45.659Z,59.10
2023-10-15T08:31:49.165Z,59.20
2023-10-15T08:36:54.855Z,59.20
2023-10-15T08:42:01.631Z,59.00
2023-10-15T08:47:06.819Z,59.10
2023-10-15T08:52:11.672Z,59.10
2023-10-15T08:57:16.886Z,59.00
2023-10-15T09:02:21.233Z,59.00
2023-10-15T09:07:27.133Z,59.00
2023-10-15T09:12:30.656Z,58.90
2023-10-15T09:17:34.228Z,58.90
2023-10-15T09:22:40.494Z,58.90
2023-10-15T09:27:48.253Z,58.80
2023-10-15T09:32:52.262Z,58.70
2023-10-15T09:37:58.961Z,58.80
2023-10-15T09:43:02.452Z,58.60
2023-10-15T09:48:10.669Z,58.80
2023-10-15T09:53:18.069Z,58.80
2023-10-15T09:58:21.570Z,58.70
2023-10-15T10:04:00.968Z,58.70
2023-10-15T10:09:22.931Z,58.10
2023-10-15T10:14:51.637Z,58.00
2023-10-15T10:19:55.521Z,57.90
2023-10-15T10:25:01.062Z,58.50
2023-10-15T10:30:28.363Z,58.10
2023-10-15T10:35:44.641Z,57.50
2023-10-15T10:40:50.989Z,57.40
2023-10-15T10:45:58.858Z,57.80
2023-10-15T10:51:16.973Z,57.60
2023-10-15T10:56:21.917Z,57.10
2023-10-15T11:01:25.385Z,57.50
2023-10-15T11:06:29.008Z,57.60
2023-10-15T11:11:33.909Z,57.60
2023-10-15T11:16:39.206Z,57.50
2023-10-15T11:21:43.149Z,57.50
2023-10-15T11:26:48.358Z,57.50
2023-10-15T11:31:55.269Z,57.20
2023-10-15T11:36:59.045Z,56.90
2023-10-15T11:42:04.819Z,57.00
2023-10-15T11:47:13.465Z,56.50
2023-10-15T11:52:20.563Z,56.60
2023-10-15T11:57:27.292Z,56.50
2023-10-15T12:02:32.883Z,56.40
2023-10-15T12:07:38.666Z,56.40
2023-10-15T12:12:43.829Z,56.50
2023-10-15T12:17:47.583Z,56.10
2023-10-15T12:22:51.238Z,56.20
2023-10-15T12:27:56.322Z,56.20
2023-10-15T12:33:00.687Z,56.10
2023-10-15T12:38:04.469Z,56.10
2023-10-15T12:43:11.531Z,56.10
2023-10-15T12:48:17.376Z,55.70
2023-10-15T12:53:21.517Z,55.80
2023-10-15T12:58:26.694Z,55.70
2023-10-15T13:03:30.828Z,56.10
2023-10-15T13:08:34.629Z,55.40
2023-10-15T13:13:40.698Z,55.20
2023-10-15T13:18:45.606Z,54.80
2023-10-15T13:23:49.893Z,55.00
2023-10-15T13:28:55.343Z,54.80
2023-10-15T13:33:59.941Z,54.50
2023-10-15T13:39:05.929Z,54.70
2023-10-15T13:44:13.461Z,54.70
2023-10-15T13:49:18.708Z,54.50
2023-10-15T13:54:26.348Z,54.50
2023-10-15T13:59:32.889Z,54.40
2023-10-15T14:04:37.082Z,54.00
2023-10-15T14:09:42.212Z,54.20
2023-10-15T14:14:48.612Z,54.20
2023-10-15T14:19:53.054Z,54.10
2023-10-15T14:24:58.552Z,54.20
2023-10-15T14:30:04.269Z,54.20
2023-10-15T14:35:12.368Z,53.90
2023-10-15T14:40:17.200Z,54.00
2023-10-15T14:45:24.916Z,54.20
2023-10-15T14:50:30.798Z,54.20
2023-10-15T14:55:36.347Z,54.40
2023-10-15T15:00:44.162Z,54.60
2023-10-15T15:05:48.307Z,54.70
2023-10-15T15:10:52.886Z,54.80
2023-10-15T15:16:00.774Z,54.90
2023-10-15T15:21:08.038Z,55.00
2023-10-15T15:26:13.207Z,55.00
2023-10-15T15:31:19.626Z,55.10
2023-10-15T15:36:24.837Z,55.00
2023-10-15T15:41:33.871Z,55.10
2023-10-15T15:46:40.524Z,55.20
2023-10-15T15:51:47.571Z,55.20
2023-10-15T15:56:53.777Z,55.30
2023-10-15T16:02:02.563Z,55.30
2023-10-15T16:07:08.168Z,55.20
2023-10-15T16:12:15.416Z,55.30
2023-10-15T16:17:22.031Z,55.60
2023-10-15T16:22:27.969Z,55.80
2023-10-15T16:27:35.249Z,56.00
2023-10-15T16:32:45.024Z,56.10
2023-10-15T16:37:54.766Z,56.20
2023-10-15T16:43:01.275Z,56.50
2023-10-15T16:48:09.679Z,56.70
2023-10-15T16:53:14.519Z,56.90
2023-10-15T16:58:19.615Z,57.00
2023-10-15T17:03:28.568Z,57.10
2023-10-15T17:08:33.730Z,57.50
2023-10-15T17:13:39.398Z,57.50
2023-10-15T17:18:45.678Z,57.50
2023-10-15T17:23:50.734Z,57.50
2023-10-15T17:28:55.800Z,57.50
2023-10-15T17:34:03.231Z,57.70
2023-10-15T17:39:11.828Z,57.90
2023-10-15T17:44:19.688Z,57.90
2023-10-15T17:49:28.098Z,58.00
2023-10-15T17:54:34.561Z,58.30
2023-10-15T17:59:41.177Z,58.30
2023-10-15T18:04:47.667Z,58.30
2023-10-15T18:09:53.614Z,58.40
2023-10-15T18:15:01.236Z,58.50
2023-10-15T18:20:09.384Z,58.60
2023-10-15T18:25:17.461Z,58.90
2023-10-15T18:30:22.647Z,58.90
2023-10-15T18:35:28.157Z,63.60
2023-10-15T18:40:31.732Z,65.80
2023-10-15T18:45:37.647Z,64.60
2023-10-15T18:50:43.138Z,62.20
2023-10-15T18:55:47.345Z,60.20
2023-10-15T19:00:51.021Z,59.30
2023-10-15T19:06:02.154Z,59.50
2023-10-15T19:11:07.835Z,58.90
2023-10-15T19:16:11.942Z,58.70
2023-10-15T19:21:19.099Z,58.80
2023-10-15T19:26:22.690Z,59.20
2023-10-15T19:31:28.001Z,59.30
2023-10-15T19:36:33.305Z,59.50
2023-10-15T19:41:37.292Z,59.90
2023-10-15T19:46:42.657Z,60.10
2023-10-15T19:51:47.658Z,60.10
2023-10-15T19:56:53.295Z,60.50
2023-10-15T20:01:58.449Z,60.60
2023-10-15T20:07:05.928Z,60.60
2023-10-15T20:12:09.940Z,60.80
2023-10-15T20:17:13.679Z,60.80
2023-10-15T20:22:18.364Z,60.90
2023-10-15T20:27:22.006Z,61.10
2023-10-15T20:32:36.350Z,61.10
2023-10-15T20:37:49.593Z,61.10
2023-10-15T20:42:53.346Z,61.40
2023-10-15T20:47:56.954Z,61.40
2023-10-15T20:53:01.904Z,61.50
2023-10-15T20:58:05.545Z,61.80
2023-10-15T21:03:09.123Z,61.80
2023-10-15T21:08:15.037Z,61.70
2023-10-15T21:13:18.387Z,62.00
2023-10-15T21:18:21.898Z,61.90
2023-10-15T21:23:26.751Z,62.00
2023-10-15T21:28:30.183Z,62.40
2023-10-15T21:33:34.690Z,62.40
2023-10-15T21:38:40.393Z,62.90
2023-10-15T21:43:43.916Z,63.40
2023-10-15T21:48:48.432Z,63.40
2023-10-15T21:53:54.460Z,63.40
2023-10-15T21:58:58.631Z,63.70
2023-10-15T22:04:03.260Z,63.60
2023-10-15T22:09:12.449Z,63.80
2023-10-15T22:14:16.200Z,64.00
2023-10-15T22:19:23.424Z,63.80
2023-10-15T22:24:29.526Z,63.80
2023-10-15T22:29:40.864Z,63.80
2023-10-15T22:34:45.775Z,63.60
2023-10-15T22:39:50.827Z,63.60
2023-10-15T22:44:54.374Z,63.70
2023-10-15T22:49:57.841Z,63.40
2023-10-15T22:55:04.333Z,63.50
2023-10-15T23:00:12.393Z,63.60
2023-10-15T23:05:16.885Z,63.70
2023-10-15T23:10:22.307Z,63.80
2023-10-15T23:15:26.974Z,63.80
2023-10-15T23:20:36.012Z,63.60
2023-10-15T23:25:42.601Z,63.60
2023-10-15T23:30:46.382Z,63.60
2023-10-15T23:35:50.657Z,63.40
2023-10-15T23:40:55.565Z,63.30
2023-10-15T23:46:06.329Z,63.40
2023-10-15T23:51:13.133Z,63.60
2023-10-15T23:56:24.482Z,63.40
